sensor_id;sensor_type;location;lat;lon;timestamp;temperature;humidity
40696;DHT22;40425;51.102;17.208;2022-08-19T00:00:25;24.20;99.90
40696;DHT22;40425;51.102;17.208;2022-08-19T00:05:26;24.20;99.90
40696;DHT22;40425;51.102;17.208;2022-08-19T00:10:27;24.20;99.90
40696;DHT22;40425;51.102;17.208;2022-08-19T00:15:28;24.10;99.90
40696;DHT22;40425;51.102;17.208;2022-08-19T00:20:29;24.10;99.90
40696;DHT22;40425;51.102;17.208;2022-08-19T00:25:30;24.00;99.90
40696;DHT22;40425;51.102;17.208;2022-08-19T00:30:31;23.80;99.90
40696;DHT22;40425;51.102;17.208;2022-08-19T00:35:32;23.50;99.90
40696;DHT22;40425;51.102;17.208;2022-08-19T00:40:34;23.20;99.90
40696;DHT22;40425;51.102;17.208;2022-08-19T00:45:34;23.10;99.90
40696;DHT22;40425;51.102;17.208;2022-08-19T00:50:36;23.00;99.90
40696;DHT22;40425;51.102;17.208;2022-08-19T00:55:43;22.90;99.90
40696;DHT22;40425;51.102;17.208;2022-08-19T01:00:46;22.80;99.90
40696;DHT22;40425;51.102;17.208;2022-08-19T01:05:49;22.70;99.90
40696;DHT22;40425;51.102;17.208;2022-08-19T01:10:55;22.70;99.90
40696;DHT22;40425;51.102;17.208;2022-08-19T01:16:05;22.80;99.90
40696;DHT22;40425;51.102;17.208;2022-08-19T01:21:39;22.90;99.90
40696;DHT22;40425;51.102;17.208;2022-08-19T01:26:43;22.90;99.90
40696;DHT22;40425;51.102;17.208;2022-08-19T01:31:44;22.80;99.90
40696;DHT22;40425;51.102;17.208;2022-08-19T01:36:47;22.60;99.90
40696;DHT22;40425;51.102;17.208;2022-08-19T01:41:49;22.40;99.90
40696;DHT22;40425;51.102;17.208;2022-08-19T01:46:51;22.40;99.90
40696;DHT22;40425;51.102;17.208;2022-08-19T01:51:52;22.40;99.90
40696;DHT22;40425;51.102;17.208;2022-08-19T01:57:02;22.40;99.90
40696;DHT22;40425;51.102;17.208;2022-08-19T02:02:05;22.30;99.90
40696;DHT22;40425;51.102;17.208;2022-08-19T02:07:09;22.30;99.90
40696;DHT22;40425;51.102;17.208;2022-08-19T02:12:19;22.30;99.90
40696;DHT22;40425;51.102;17.208;2022-08-19T02:17:21;22.20;99.90
40696;DHT22;40425;51.102;17.208;2022-08-19T02:22:23;22.10;99.90
40696;DHT22;40425;51.102;17.208;2022-08-19T02:27:25;22.10;99.90
40696;DHT22;40425;51.102;17.208;2022-08-19T02:32:27;22.00;99.90
40696;DHT22;40425;51.102;17.208;2022-08-19T02:37:27;21.90;99.90
40696;DHT22;40425;51.102;17.208;2022-08-19T02:42:47;21.70;99.90
40696;DHT22;40425;51.102;17.208;2022-08-19T02:47:48;21.50;99.90
40696;DHT22;40425;51.102;17.208;2022-08-19T02:52:48;21.40;99.90
40696;DHT22;40425;51.102;17.208;2022-08-19T02:57:49;21.30;99.90
40696;DHT22;40425;51.102;17.208;2022-08-19T03:02:50;21.20;99.90
40696;DHT22;40425;51.102;17.208;2022-08-19T03:07:51;21.00;99.90
40696;DHT22;40425;51.102;17.208;2022-08-19T03:12:52;20.80;99.90
40696;DHT22;40425;51.102;17.208;2022-08-19T03:17:53;20.70;99.90
40696;DHT22;40425;51.102;17.208;2022-08-19T03:22:57;20.70;99.90
40696;DHT22;40425;51.102;17.208;2022-08-19T03:27:58;20.70;99.90
40696;DHT22;40425;51.102;17.208;2022-08-19T03:32:59;20.80;99.90
40696;DHT22;40425;51.102;17.208;2022-08-19T03:37:59;20.80;99.90
40696;DHT22;40425;51.102;17.208;2022-08-19T03:43:01;20.80;99.90
40696;DHT22;40425;51.102;17.208;2022-08-19T03:48:02;20.80;99.90
40696;DHT22;40425;51.102;17.208;2022-08-19T03:53:03;20.70;99.90
40696;DHT22;40425;51.102;17.208;2022-08-19T03:58:03;20.60;99.90
40696;DHT22;40425;51.102;17.208;2022-08-19T04:03:04;20.50;99.90
40696;DHT22;40425;51.102;17.208;2022-08-19T04:08:05;20.50;99.90
40696;DHT22;40425;51.102;17.208;2022-08-19T04:13:06;20.70;99.90
40696;DHT22;40425;51.102;17.208;2022-08-19T04:18:11;21.00;99.90
40696;DHT22;40425;51.102;17.208;2022-08-19T04:23:13;21.70;99.90
40696;DHT22;40425;51.102;17.208;2022-08-19T04:28:14;22.60;99.90
40696;DHT22;40425;51.102;17.208;2022-08-19T04:33:17;23.20;99.90
40696;DHT22;40425;51.102;17.208;2022-08-19T04:38:20;23.90;99.90
40696;DHT22;40425;51.102;17.208;2022-08-19T04:43:22;24.30;99.90
40696;DHT22;40425;51.102;17.208;2022-08-19T04:48:24;24.40;99.90
40696;DHT22;40425;51.102;17.208;2022-08-19T04:53:29;24.20;99.90
40696;DHT22;40425;51.102;17.208;2022-08-19T04:58:31;24.10;99.90
40696;DHT22;40425;51.102;17.208;2022-08-19T05:03:32;24.00;99.90
40696;DHT22;40425;51.102;17.208;2022-08-19T05:08:35;24.00;99.90
40696;DHT22;40425;51.102;17.208;2022-08-19T05:13:37;24.00;99.90
40696;DHT22;40425;51.102;17.208;2022-08-19T05:18:40;24.00;99.90
40696;DHT22;40425;51.102;17.208;2022-08-19T05:23:59;24.10;99.90
40696;DHT22;40425;51.102;17.208;2022-08-19T05:29:00;24.20;99.90
40696;DHT22;40425;51.102;17.208;2022-08-19T05:34:01;24.30;99.90
40696;DHT22;40425;51.102;17.208;2022-08-19T05:39:03;24.50;99.90
40696;DHT22;40425;51.102;17.208;2022-08-19T05:44:05;24.70;99.90
40696;DHT22;40425;51.102;17.208;2022-08-19T05:49:09;24.80;99.90
40696;DHT22;40425;51.102;17.208;2022-08-19T05:54:10;24.90;99.90
40696;DHT22;40425;51.102;17.208;2022-08-19T05:59:15;24.90;99.90
40696;DHT22;40425;51.102;17.208;2022-08-19T06:04:18;25.00;99.90
40696;DHT22;40425;51.102;17.208;2022-08-19T06:09:21;25.20;99.90
40696;DHT22;40425;51.102;17.208;2022-08-19T06:14:25;25.20;99.90
40696;DHT22;40425;51.102;17.208;2022-08-19T06:19:27;25.40;99.90
40696;DHT22;40425;51.102;17.208;2022-08-19T06:24:30;25.40;99.90
40696;DHT22;40425;51.102;17.208;2022-08-19T06:29:32;25.40;99.90
40696;DHT22;40425;51.102;17.208;2022-08-19T06:34:34;25.60;99.90
40696;DHT22;40425;51.102;17.208;2022-08-19T06:39:38;25.70;99.90
40696;DHT22;40425;51.102;17.208;2022-08-19T06:44:41;25.80;99.90
40696;DHT22;40425;51.102;17.208;2022-08-19T06:49:42;25.90;99.90
40696;DHT22;40425;51.102;17.208;2022-08-19T06:54:43;26.10;99.90
40696;DHT22;40425;51.102;17.208;2022-08-19T06:59:44;26.20;99.90
40696;DHT22;40425;51.102;17.208;2022-08-19T07:04:45;26.20;99.90
40696;DHT22;40425;51.102;17.208;2022-08-19T07:09:46;26.30;99.90
40696;DHT22;40425;51.102;17.208;2022-08-19T07:14:48;26.40;99.90
40696;DHT22;40425;51.102;17.208;2022-08-19T07:19:49;26.40;99.90
40696;DHT22;40425;51.102;17.208;2022-08-19T07:24:51;26.40;99.90
40696;DHT22;40425;51.102;17.208;2022-08-19T07:29:53;26.60;99.90
40696;DHT22;40425;51.102;17.208;2022-08-19T07:34:54;26.80;99.90
40696;DHT22;40425;51.102;17.208;2022-08-19T07:39:55;26.90;99.90
40696;DHT22;40425;51.102;17.208;2022-08-19T07:44:56;27.10;99.90
40696;DHT22;40425;51.102;17.208;2022-08-19T07:49:57;27.20;99.90
40696;DHT22;40425;51.102;17.208;2022-08-19T07:54:58;27.30;99.90
40696;DHT22;40425;51.102;17.208;2022-08-19T08:00:00;27.40;99.90
40696;DHT22;40425;51.102;17.208;2022-08-19T08:05:01;27.40;99.90
40696;DHT22;40425;51.102;17.208;2022-08-19T08:10:20;27.50;99.90
40696;DHT22;40425;51.102;17.208;2022-08-19T08:15:23;27.60;99.90
40696;DHT22;40425;51.102;17.208;2022-08-19T08:20:24;28.00;99.90
40696;DHT22;40425;51.102;17.208;2022-08-19T08:25:25;28.10;99.90
40696;DHT22;40425;51.102;17.208;2022-08-19T08:30:27;28.20;99.90
40696;DHT22;40425;51.102;17.208;2022-08-19T08:35:28;28.30;99.90
40696;DHT22;40425;51.102;17.208;2022-08-19T08:40:43;28.60;99.90
40696;DHT22;40425;51.102;17.208;2022-08-19T08:45:55;28.60;99.90
40696;DHT22;40425;51.102;17.208;2022-08-19T08:50:58;28.70;99.90
40696;DHT22;40425;51.102;17.208;2022-08-19T08:56:03;28.70;99.90
40696;DHT22;40425;51.102;17.208;2022-08-19T09:01:05;28.90;99.90
40696;DHT22;40425;51.102;17.208;2022-08-19T09:06:14;29.10;99.90
40696;DHT22;40425;51.102;17.208;2022-08-19T09:11:41;29.10;99.90
40696;DHT22;40425;51.102;17.208;2022-08-19T09:16:44;28.80;99.90
40696;DHT22;40425;51.102;17.208;2022-08-19T09:21:45;28.80;99.90
40696;DHT22;40425;51.102;17.208;2022-08-19T09:26:47;28.90;99.90
40696;DHT22;40425;51.102;17.208;2022-08-19T09:31:51;29.20;99.90
40696;DHT22;40425;51.102;17.208;2022-08-19T09:36:53;29.30;99.90
40696;DHT22;40425;51.102;17.208;2022-08-19T09:41:57;29.50;99.90
40696;DHT22;40425;51.102;17.208;2022-08-19T09:46:59;29.60;99.90
40696;DHT22;40425;51.102;17.208;2022-08-19T09:52:00;29.80;99.90
40696;DHT22;40425;51.102;17.208;2022-08-19T09:57:01;30.30;99.90
40696;DHT22;40425;51.102;17.208;2022-08-19T10:02:02;30.50;99.40
40696;DHT22;40425;51.102;17.208;2022-08-19T10:07:04;30.60;99.90
40696;DHT22;40425;51.102;17.208;2022-08-19T10:12:05;30.80;99.90
40696;DHT22;40425;51.102;17.208;2022-08-19T10:17:07;30.90;99.80
40696;DHT22;40425;51.102;17.208;2022-08-19T10:22:08;30.90;98.80
40696;DHT22;40425;51.102;17.208;2022-08-19T10:27:09;31.00;99.90
40696;DHT22;40425;51.102;17.208;2022-08-19T10:32:11;31.20;99.90
40696;DHT22;40425;51.102;17.208;2022-08-19T10:37:16;31.30;98.70
40696;DHT22;40425;51.102;17.208;2022-08-19T10:42:18;31.40;98.60
40696;DHT22;40425;51.102;17.208;2022-08-19T10:47:19;31.60;98.40
40696;DHT22;40425;51.102;17.208;2022-08-19T10:52:21;31.80;98.00
40696;DHT22;40425;51.102;17.208;2022-08-19T10:57:34;32.00;97.20
40696;DHT22;40425;51.102;17.208;2022-08-19T11:02:35;32.00;97.70
40696;DHT22;40425;51.102;17.208;2022-08-19T11:07:40;32.10;96.90
40696;DHT22;40425;51.102;17.208;2022-08-19T11:12:43;32.20;96.40
40696;DHT22;40425;51.102;17.208;2022-08-19T11:17:46;32.20;95.30
40696;DHT22;40425;51.102;17.208;2022-08-19T11:22:47;32.20;95.10
40696;DHT22;40425;51.102;17.208;2022-08-19T11:27:48;32.20;95.70
40696;DHT22;40425;51.102;17.208;2022-08-19T11:32:52;32.30;95.10
40696;DHT22;40425;51.102;17.208;2022-08-19T11:37:53;32.50;95.10
40696;DHT22;40425;51.102;17.208;2022-08-19T11:42:54;32.50;94.80
40696;DHT22;40425;51.102;17.208;2022-08-19T11:47:56;32.40;94.60
40696;DHT22;40425;51.102;17.208;2022-08-19T11:52:57;32.50;93.70
40696;DHT22;40425;51.102;17.208;2022-08-19T11:57:58;32.70;92.90
40696;DHT22;40425;51.102;17.208;2022-08-19T12:02:59;32.90;92.00
40696;DHT22;40425;51.102;17.208;2022-08-19T12:08:00;33.30;91.00
40696;DHT22;40425;51.102;17.208;2022-08-19T12:13:01;33.40;89.90
40696;DHT22;40425;51.102;17.208;2022-08-19T12:18:03;33.40;89.00
40696;DHT22;40425;51.102;17.208;2022-08-19T12:23:05;33.30;87.50
40696;DHT22;40425;51.102;17.208;2022-08-19T12:28:07;33.20;86.50
40696;DHT22;40425;51.102;17.208;2022-08-19T12:33:09;33.10;87.90
40696;DHT22;40425;51.102;17.208;2022-08-19T12:38:13;33.10;88.90
40696;DHT22;40425;51.102;17.208;2022-08-19T12:43:18;33.20;89.60
40696;DHT22;40425;51.102;17.208;2022-08-19T12:48:21;33.30;88.10
40696;DHT22;40425;51.102;17.208;2022-08-19T12:53:21;33.40;87.50
40696;DHT22;40425;51.102;17.208;2022-08-19T12:58:23;33.30;87.70
40696;DHT22;40425;51.102;17.208;2022-08-19T13:03:24;33.50;88.40
40696;DHT22;40425;51.102;17.208;2022-08-19T13:08:29;33.50;86.00
40696;DHT22;40425;51.102;17.208;2022-08-19T13:13:30;33.70;86.10
40696;DHT22;40425;51.102;17.208;2022-08-19T13:18:31;33.90;85.20
40696;DHT22;40425;51.102;17.208;2022-08-19T13:23:34;33.80;84.40
40696;DHT22;40425;51.102;17.208;2022-08-19T13:28:37;33.70;82.40
40696;DHT22;40425;51.102;17.208;2022-08-19T13:34:05;33.70;82.90
40696;DHT22;40425;51.102;17.208;2022-08-19T13:39:07;33.80;82.00
40696;DHT22;40425;51.102;17.208;2022-08-19T13:44:09;33.80;82.10
40696;DHT22;40425;51.102;17.208;2022-08-19T13:49:12;33.80;80.50
40696;DHT22;40425;51.102;17.208;2022-08-19T13:54:15;33.70;80.30
40696;DHT22;40425;51.102;17.208;2022-08-19T13:59:16;33.50;80.30
40696;DHT22;40425;51.102;17.208;2022-08-19T14:04:18;33.50;83.00
40696;DHT22;40425;51.102;17.208;2022-08-19T14:09:19;33.50;83.10
40696;DHT22;40425;51.102;17.208;2022-08-19T14:14:20;33.50;81.80
40696;DHT22;40425;51.102;17.208;2022-08-19T14:19:21;33.40;84.20
40696;DHT22;40425;51.102;17.208;2022-08-19T14:24:22;33.30;82.40
40696;DHT22;40425;51.102;17.208;2022-08-19T14:29:25;33.20;82.70
40696;DHT22;40425;51.102;17.208;2022-08-19T14:34:31;33.00;84.30
40696;DHT22;40425;51.102;17.208;2022-08-19T14:39:35;32.70;85.40
40696;DHT22;40425;51.102;17.208;2022-08-19T14:44:36;32.80;85.80
40696;DHT22;40425;51.102;17.208;2022-08-19T14:49:37;32.70;85.60
40696;DHT22;40425;51.102;17.208;2022-08-19T14:54:39;32.80;86.50
40696;DHT22;40425;51.102;17.208;2022-08-19T14:59:42;32.80;86.50
40696;DHT22;40425;51.102;17.208;2022-08-19T15:04:43;32.80;88.40
40696;DHT22;40425;51.102;17.208;2022-08-19T15:09:44;32.70;87.40
40696;DHT22;40425;51.102;17.208;2022-08-19T15:14:45;32.60;87.00
40696;DHT22;40425;51.102;17.208;2022-08-19T15:19:51;32.50;86.70
40696;DHT22;40425;51.102;17.208;2022-08-19T15:24:52;32.30;85.90
40696;DHT22;40425;51.102;17.208;2022-08-19T15:29:53;32.30;86.40
40696;DHT22;40425;51.102;17.208;2022-08-19T15:34:54;32.20;88.70
40696;DHT22;40425;51.102;17.208;2022-08-19T15:39:55;31.60;89.40
40696;DHT22;40425;51.102;17.208;2022-08-19T15:44:56;31.10;90.30
40696;DHT22;40425;51.102;17.208;2022-08-19T15:49:57;30.80;91.20
40696;DHT22;40425;51.102;17.208;2022-08-19T15:54:59;30.60;92.70
40696;DHT22;40425;51.102;17.208;2022-08-19T16:00:00;30.40;93.40
40696;DHT22;40425;51.102;17.208;2022-08-19T16:05:23;30.00;94.30
40696;DHT22;40425;51.102;17.208;2022-08-19T16:10:43;29.70;94.80
40696;DHT22;40425;51.102;17.208;2022-08-19T16:15:43;29.60;95.60
40696;DHT22;40425;51.102;17.208;2022-08-19T16:20:44;29.40;95.70
40696;DHT22;40425;51.102;17.208;2022-08-19T16:25:46;29.40;96.00
40696;DHT22;40425;51.102;17.208;2022-08-19T16:30:47;29.10;96.70
40696;DHT22;40425;51.102;17.208;2022-08-19T16:35:47;28.80;98.00
40696;DHT22;40425;51.102;17.208;2022-08-19T16:40:48;28.70;99.30
40696;DHT22;40425;51.102;17.208;2022-08-19T16:45:53;28.70;99.70
40696;DHT22;40425;51.102;17.208;2022-08-19T16:50:57;28.80;99.20
40696;DHT22;40425;51.102;17.208;2022-08-19T16:55:59;28.90;99.60
40696;DHT22;40425;51.102;17.208;2022-08-19T17:01:03;28.60;99.90
40696;DHT22;40425;51.102;17.208;2022-08-19T17:06:15;28.50;99.90
40696;DHT22;40425;51.102;17.208;2022-08-19T17:11:18;28.50;99.90
40696;DHT22;40425;51.102;17.208;2022-08-19T17:16:22;28.50;99.90
40696;DHT22;40425;51.102;17.208;2022-08-19T17:21:27;28.20;99.90
40696;DHT22;40425;51.102;17.208;2022-08-19T17:26:29;28.20;99.90
40696;DHT22;40425;51.102;17.208;2022-08-19T17:31:31;28.00;99.90
40696;DHT22;40425;51.102;17.208;2022-08-19T17:36:32;27.80;99.90
40696;DHT22;40425;51.102;17.208;2022-08-19T17:41:35;27.40;99.90
40696;DHT22;40425;51.102;17.208;2022-08-19T17:46:35;27.50;99.90
40696;DHT22;40425;51.102;17.208;2022-08-19T17:51:40;27.40;99.90
40696;DHT22;40425;51.102;17.208;2022-08-19T17:56:45;27.60;99.90
40696;DHT22;40425;51.102;17.208;2022-08-19T18:01:47;27.40;99.90
40696;DHT22;40425;51.102;17.208;2022-08-19T18:06:48;27.30;99.90
40696;DHT22;40425;51.102;17.208;2022-08-19T18:11:49;27.20;99.90
40696;DHT22;40425;51.102;17.208;2022-08-19T18:16:50;27.20;99.90
40696;DHT22;40425;51.102;17.208;2022-08-19T18:21:53;27.10;99.90
40696;DHT22;40425;51.102;17.208;2022-08-19T18:26:54;26.90;99.90
40696;DHT22;40425;51.102;17.208;2022-08-19T18:31:55;26.90;99.90
40696;DHT22;40425;51.102;17.208;2022-08-19T18:36:58;26.80;99.90
40696;DHT22;40425;51.102;17.208;2022-08-19T18:42:02;26.80;99.90
40696;DHT22;40425;51.102;17.208;2022-08-19T18:47:32;26.70;99.90
40696;DHT22;40425;51.102;17.208;2022-08-19T18:52:52;26.60;99.90
40696;DHT22;40425;51.102;17.208;2022-08-19T18:57:53;26.50;99.90
40696;DHT22;40425;51.102;17.208;2022-08-19T19:02:56;26.40;99.90
40696;DHT22;40425;51.102;17.208;2022-08-19T19:07:59;26.30;99.90
40696;DHT22;40425;51.102;17.208;2022-08-19T19:13:01;26.20;99.90
40696;DHT22;40425;51.102;17.208;2022-08-19T19:18:05;26.20;99.90
40696;DHT22;40425;51.102;17.208;2022-08-19T19:23:08;26.10;99.90
40696;DHT22;40425;51.102;17.208;2022-08-19T19:28:10;26.10;99.90
40696;DHT22;40425;51.102;17.208;2022-08-19T19:33:13;26.10;99.90
40696;DHT22;40425;51.102;17.208;2022-08-19T19:38:16;26.10;99.90
40696;DHT22;40425;51.102;17.208;2022-08-19T19:43:20;25.80;99.90
40696;DHT22;40425;51.102;17.208;2022-08-19T19:48:23;25.50;99.90
40696;DHT22;40425;51.102;17.208;2022-08-19T19:53:31;25.30;99.90
40696;DHT22;40425;51.102;17.208;2022-08-19T19:58:37;25.20;99.90
40696;DHT22;40425;51.102;17.208;2022-08-19T20:03:43;25.10;99.90
40696;DHT22;40425;51.102;17.208;2022-08-19T20:08:52;24.90;99.90
40696;DHT22;40425;51.102;17.208;2022-08-19T20:14:21;24.80;99.90
40696;DHT22;40425;51.102;17.208;2022-08-19T20:19:24;24.70;99.90
40696;DHT22;40425;51.102;17.208;2022-08-19T20:24:32;24.50;99.90
40696;DHT22;40425;51.102;17.208;2022-08-19T20:29:35;24.40;99.90
40696;DHT22;40425;51.102;17.208;2022-08-19T20:34:37;24.30;99.90
40696;DHT22;40425;51.102;17.208;2022-08-19T20:39:38;24.20;99.90
40696;DHT22;40425;51.102;17.208;2022-08-19T20:44:40;24.20;99.90
40696;DHT22;40425;51.102;17.208;2022-08-19T20:49:41;24.00;99.90
40696;DHT22;40425;51.102;17.208;2022-08-19T20:54:41;23.90;99.90
40696;DHT22;40425;51.102;17.208;2022-08-19T20:59:43;23.90;99.90
40696;DHT22;40425;51.102;17.208;2022-08-19T21:04:46;23.80;99.90
40696;DHT22;40425;51.102;17.208;2022-08-19T21:09:48;23.80;99.90
40696;DHT22;40425;51.102;17.208;2022-08-19T21:14:51;23.60;99.90
40696;DHT22;40425;51.102;17.208;2022-08-19T21:19:52;23.60;99.90
40696;DHT22;40425;51.102;17.208;2022-08-19T21:24:53;23.50;99.90
40696;DHT22;40425;51.102;17.208;2022-08-19T21:29:54;23.40;99.90
40696;DHT22;40425;51.102;17.208;2022-08-19T21:34:57;23.40;99.90
40696;DHT22;40425;51.102;17.208;2022-08-19T21:40:00;23.30;99.90
40696;DHT22;40425;51.102;17.208;2022-08-19T21:45:03;23.20;99.90
40696;DHT22;40425;51.102;17.208;2022-08-19T21:50:05;23.10;99.90
40696;DHT22;40425;51.102;17.208;2022-08-19T21:55:08;23.10;99.90
40696;DHT22;40425;51.102;17.208;2022-08-19T22:00:17;23.00;99.90
40696;DHT22;40425;51.102;17.208;2022-08-19T22:05:20;22.90;99.90
40696;DHT22;40425;51.102;17.208;2022-08-19T22:10:25;22.90;99.90
40696;DHT22;40425;51.102;17.208;2022-08-19T22:15:26;22.80;99.90
40696;DHT22;40425;51.102;17.208;2022-08-19T22:20:30;22.70;99.90
40696;DHT22;40425;51.102;17.208;2022-08-19T22:25:36;22.70;99.90
40696;DHT22;40425;51.102;17.208;2022-08-19T22:30:41;22.60;99.90
40696;DHT22;40425;51.102;17.208;2022-08-19T22:35:43;22.50;99.90
40696;DHT22;40425;51.102;17.208;2022-08-19T22:40:47;22.40;99.90
40696;DHT22;40425;51.102;17.208;2022-08-19T22:45:49;22.40;99.90
40696;DHT22;40425;51.102;17.208;2022-08-19T22:50:51;22.30;99.90
40696;DHT22;40425;51.102;17.208;2022-08-19T22:56:12;22.20;99.90
40696;DHT22;40425;51.102;17.208;2022-08-19T23:01:15;22.10;99.90
40696;DHT22;40425;51.102;17.208;2022-08-19T23:06:16;22.00;99.90
40696;DHT22;40425;51.102;17.208;2022-08-19T23:11:17;21.90;99.90
40696;DHT22;40425;51.102;17.208;2022-08-19T23:16:18;21.80;99.90
40696;DHT22;40425;51.102;17.208;2022-08-19T23:21:19;21.80;99.90
40696;DHT22;40425;51.102;17.208;2022-08-19T23:26:20;21.60;99.90
40696;DHT22;40425;51.102;17.208;2022-08-19T23:31:21;21.30;99.90
40696;DHT22;40425;51.102;17.208;2022-08-19T23:36:22;21.20;99.90
40696;DHT22;40425;51.102;17.208;2022-08-19T23:41:24;21.20;99.90
40696;DHT22;40425;51.102;17.208;2022-08-19T23:46:27;21.20;99.90
40696;DHT22;40425;51.102;17.208;2022-08-19T23:51:27;21.20;99.90
40696;DHT22;40425;51.102;17.208;2022-08-19T23:56:28;21.30;99.90
